sensor_id;sensor_type;location;lat;lon;timestamp;P1;durP1;ratioP1;P2;durP2;ratioP2
16033;SDS011;8121;51.418;6.998;2024-03-25T00:04:12;5.43;;;2.70;;
16033;SDS011;8121;51.418;6.998;2024-03-25T00:09:14;18.60;;;4.10;;
16033;SDS011;8121;51.418;6.998;2024-03-25T00:14:15;10.80;;;3.70;;
16033;SDS011;8121;51.418;6.998;2024-03-25T00:19:18;24.93;;;7.07;;
16033;SDS011;8121;51.418;6.998;2024-03-25T00:24:19;14.10;;;4.30;;
16033;SDS011;8121;51.418;6.998;2024-03-25T00:29:21;17.73;;;6.00;;
16033;SDS011;8121;51.418;6.998;2024-03-25T00:34:24;11.13;;;5.37;;
16033;SDS011;8121;51.418;6.998;2024-03-25T00:39:25;14.47;;;5.73;;
16033;SDS011;8121;51.418;6.998;2024-03-25T00:44:27;10.77;;;4.70;;
16033;SDS011;8121;51.418;6.998;2024-03-25T00:49:30;17.80;;;6.93;;
16033;SDS011;8121;51.418;6.998;2024-03-25T00:54:31;10.97;;;5.43;;
16033;SDS011;8121;51.418;6.998;2024-03-25T00:59:32;20.37;;;6.83;;
16033;SDS011;8121;51.418;6.998;2024-03-25T01:04:35;10.03;;;4.00;;
16033;SDS011;8121;51.418;6.998;2024-03-25T01:09:37;15.60;;;5.27;;
16033;SDS011;8121;51.418;6.998;2024-03-25T01:14:39;20.20;;;5.90;;
16033;SDS011;8121;51.418;6.998;2024-03-25T01:19:41;14.63;;;3.63;;
16033;SDS011;8121;51.418;6.998;2024-03-25T01:24:43;8.50;;;3.00;;
16033;SDS011;8121;51.418;6.998;2024-03-25T01:29:44;9.23;;;3.50;;
16033;SDS011;8121;51.418;6.998;2024-03-25T01:34:47;9.00;;;2.63;;
16033;SDS011;8121;51.418;6.998;2024-03-25T01:39:49;8.93;;;2.40;;
16033;SDS011;8121;51.418;6.998;2024-03-25T01:44:50;6.77;;;1.90;;
16033;SDS011;8121;51.418;6.998;2024-03-25T01:49:53;3.27;;;2.30;;
16033;SDS011;8121;51.418;6.998;2024-03-25T01:54:56;6.90;;;2.10;;
16033;SDS011;8121;51.418;6.998;2024-03-25T01:59:58;12.77;;;3.27;;
16033;SDS011;8121;51.418;6.998;2024-03-25T02:05:01;7.47;;;2.27;;
16033;SDS011;8121;51.418;6.998;2024-03-25T02:10:04;15.27;;;3.27;;
16033;SDS011;8121;51.418;6.998;2024-03-25T02:15:06;10.03;;;2.10;;
16033;SDS011;8121;51.418;6.998;2024-03-25T02:20:11;10.63;;;2.60;;
16033;SDS011;8121;51.418;6.998;2024-03-25T02:25:16;16.73;;;2.83;;
16033;SDS011;8121;51.418;6.998;2024-03-25T02:30:19;14.53;;;2.63;;
16033;SDS011;8121;51.418;6.998;2024-03-25T02:35:20;3.43;;;1.63;;
16033;SDS011;8121;51.418;6.998;2024-03-25T02:40:22;8.73;;;2.63;;
16033;SDS011;8121;51.418;6.998;2024-03-25T02:45:25;6.20;;;1.97;;
16033;SDS011;8121;51.418;6.998;2024-03-25T02:50:26;8.13;;;2.70;;
16033;SDS011;8121;51.418;6.998;2024-03-25T02:55:28;4.17;;;1.87;;
16033;SDS011;8121;51.418;6.998;2024-03-25T03:00:31;7.43;;;2.50;;
16033;SDS011;8121;51.418;6.998;2024-03-25T03:05:32;5.10;;;1.87;;
16033;SDS011;8121;51.418;6.998;2024-03-25T03:10:35;8.43;;;2.90;;
16033;SDS011;8121;51.418;6.998;2024-03-25T03:15:37;5.70;;;2.53;;
16033;SDS011;8121;51.418;6.998;2024-03-25T03:20:39;7.30;;;2.33;;
16033;SDS011;8121;51.418;6.998;2024-03-25T03:25:41;6.53;;;1.80;;
16033;SDS011;8121;51.418;6.998;2024-03-25T03:30:44;11.73;;;3.60;;
16033;SDS011;8121;51.418;6.998;2024-03-25T03:35:45;6.63;;;2.30;;
16033;SDS011;8121;51.418;6.998;2024-03-25T03:40:55;12.53;;;3.23;;
16033;SDS011;8121;51.418;6.998;2024-03-25T03:45:59;17.57;;;3.70;;
16033;SDS011;8121;51.418;6.998;2024-03-25T03:51:00;6.50;;;2.57;;
16033;SDS011;8121;51.418;6.998;2024-03-25T03:56:02;4.03;;;2.13;;
16033;SDS011;8121;51.418;6.998;2024-03-25T04:01:13;18.63;;;4.43;;
16033;SDS011;8121;51.418;6.998;2024-03-25T04:06:15;6.00;;;2.80;;
16033;SDS011;8121;51.418;6.998;2024-03-25T04:11:16;7.20;;;2.13;;
16033;SDS011;8121;51.418;6.998;2024-03-25T04:16:19;6.57;;;2.70;;
16033;SDS011;8121;51.418;6.998;2024-03-25T04:21:23;4.73;;;2.37;;
16033;SDS011;8121;51.418;6.998;2024-03-25T04:26:24;8.50;;;2.70;;
16033;SDS011;8121;51.418;6.998;2024-03-25T04:31:27;2.40;;;2.20;;
16033;SDS011;8121;51.418;6.998;2024-03-25T04:36:28;5.50;;;2.40;;
16033;SDS011;8121;51.418;6.998;2024-03-25T04:41:30;3.00;;;2.07;;
16033;SDS011;8121;51.418;6.998;2024-03-25T04:46:32;8.50;;;2.97;;
16033;SDS011;8121;51.418;6.998;2024-03-25T04:51:32;7.13;;;3.07;;
16033;SDS011;8121;51.418;6.998;2024-03-25T04:56:33;5.90;;;3.43;;
16033;SDS011;8121;51.418;6.998;2024-03-25T05:01:35;5.90;;;2.80;;
16033;SDS011;8121;51.418;6.998;2024-03-25T05:06:35;3.40;;;2.50;;
16033;SDS011;8121;51.418;6.998;2024-03-25T05:11:36;5.40;;;2.60;;
16033;SDS011;8121;51.418;6.998;2024-03-25T05:16:38;7.30;;;1.73;;
16033;SDS011;8121;51.418;6.998;2024-03-25T05:21:38;5.47;;;2.43;;
16033;SDS011;8121;51.418;6.998;2024-03-25T05:26:39;3.80;;;2.37;;
16033;SDS011;8121;51.418;6.998;2024-03-25T05:31:54;6.23;;;1.90;;
16033;SDS011;8121;51.418;6.998;2024-03-25T05:36:56;3.00;;;2.40;;
16033;SDS011;8121;51.418;6.998;2024-03-25T05:41:57;3.70;;;2.33;;
16033;SDS011;8121;51.418;6.998;2024-03-25T05:46:59;5.53;;;2.33;;
16033;SDS011;8121;51.418;6.998;2024-03-25T05:51:59;2.27;;;1.77;;
16033;SDS011;8121;51.418;6.998;2024-03-25T05:57:00;5.53;;;2.40;;
16033;SDS011;8121;51.418;6.998;2024-03-25T06:02:02;3.20;;;2.20;;
16033;SDS011;8121;51.418;6.998;2024-03-25T06:07:03;3.60;;;2.40;;
16033;SDS011;8121;51.418;6.998;2024-03-25T06:12:04;5.33;;;1.80;;
16033;SDS011;8121;51.418;6.998;2024-03-25T06:17:06;4.17;;;2.83;;
16033;SDS011;8121;51.418;6.998;2024-03-25T06:22:06;8.97;;;3.93;;
16033;SDS011;8121;51.418;6.998;2024-03-25T06:27:07;6.20;;;2.60;;
16033;SDS011;8121;51.418;6.998;2024-03-25T06:32:09;6.33;;;2.73;;
16033;SDS011;8121;51.418;6.998;2024-03-25T06:37:28;6.00;;;2.63;;
16033;SDS011;8121;51.418;6.998;2024-03-25T06:42:28;3.57;;;2.07;;
16033;SDS011;8121;51.418;6.998;2024-03-25T06:47:30;4.57;;;3.20;;
16033;SDS011;8121;51.418;6.998;2024-03-25T06:52:31;16.30;;;3.27;;
16033;SDS011;8121;51.418;6.998;2024-03-25T06:57:32;5.87;;;2.17;;
16033;SDS011;8121;51.418;6.998;2024-03-25T07:02:34;12.73;;;3.00;;
16033;SDS011;8121;51.418;6.998;2024-03-25T07:07:35;7.10;;;3.00;;
16033;SDS011;8121;51.418;6.998;2024-03-25T07:12:35;3.30;;;2.63;;
16033;SDS011;8121;51.418;6.998;2024-03-25T07:17:37;6.67;;;2.73;;
16033;SDS011;8121;51.418;6.998;2024-03-25T07:22:38;8.37;;;3.73;;
16033;SDS011;8121;51.418;6.998;2024-03-25T07:27:38;3.47;;;2.53;;
16033;SDS011;8121;51.418;6.998;2024-03-25T07:32:40;8.20;;;2.60;;
16033;SDS011;8121;51.418;6.998;2024-03-25T07:37:41;9.20;;;2.43;;
16033;SDS011;8121;51.418;6.998;2024-03-25T07:42:41;11.23;;;2.20;;
16033;SDS011;8121;51.418;6.998;2024-03-25T07:47:43;10.67;;;3.50;;
16033;SDS011;8121;51.418;6.998;2024-03-25T07:52:44;10.10;;;2.63;;
16033;SDS011;8121;51.418;6.998;2024-03-25T07:57:44;6.23;;;2.53;;
16033;SDS011;8121;51.418;6.998;2024-03-25T08:02:46;9.80;;;3.80;;
16033;SDS011;8121;51.418;6.998;2024-03-25T08:07:47;8.17;;;3.60;;
16033;SDS011;8121;51.418;6.998;2024-03-25T08:12:47;5.90;;;2.43;;
16033;SDS011;8121;51.418;6.998;2024-03-25T08:17:49;16.50;;;4.23;;
16033;SDS011;8121;51.418;6.998;2024-03-25T08:22:50;11.67;;;2.77;;
16033;SDS011;8121;51.418;6.998;2024-03-25T08:27:50;12.30;;;2.30;;
16033;SDS011;8121;51.418;6.998;2024-03-25T08:32:52;7.00;;;2.20;;
16033;SDS011;8121;51.418;6.998;2024-03-25T08:37:53;17.30;;;3.70;;
16033;SDS011;8121;51.418;6.998;2024-03-25T08:42:53;6.90;;;2.50;;
16033;SDS011;8121;51.418;6.998;2024-03-25T08:47:55;5.83;;;2.20;;
16033;SDS011;8121;51.418;6.998;2024-03-25T08:52:56;5.23;;;1.70;;
16033;SDS011;8121;51.418;6.998;2024-03-25T08:57:56;9.00;;;2.33;;
16033;SDS011;8121;51.418;6.998;2024-03-25T09:02:59;5.10;;;1.33;;
16033;SDS011;8121;51.418;6.998;2024-03-25T09:07:59;12.93;;;2.80;;
16033;SDS011;8121;51.418;6.998;2024-03-25T09:13:00;4.70;;;1.43;;
16033;SDS011;8121;51.418;6.998;2024-03-25T09:18:02;2.10;;;1.13;;
16033;SDS011;8121;51.418;6.998;2024-03-25T09:23:03;3.07;;;1.20;;
16033;SDS011;8121;51.418;6.998;2024-03-25T09:28:04;5.90;;;1.70;;
16033;SDS011;8121;51.418;6.998;2024-03-25T09:33:06;4.17;;;1.53;;
16033;SDS011;8121;51.418;6.998;2024-03-25T09:38:06;9.73;;;1.90;;
16033;SDS011;8121;51.418;6.998;2024-03-25T09:43:09;3.67;;;1.03;;
16033;SDS011;8121;51.418;6.998;2024-03-25T09:48:14;15.20;;;2.17;;
16033;SDS011;8121;51.418;6.998;2024-03-25T09:53:16;4.10;;;1.53;;
16033;SDS011;8121;51.418;6.998;2024-03-25T09:58:16;5.70;;;1.73;;
16033;SDS011;8121;51.418;6.998;2024-03-25T10:03:19;9.20;;;2.10;;
16033;SDS011;8121;51.418;6.998;2024-03-25T10:08:20;6.27;;;2.00;;
16033;SDS011;8121;51.418;6.998;2024-03-25T10:13:21;5.60;;;1.20;;
16033;SDS011;8121;51.418;6.998;2024-03-25T10:18:23;4.40;;;1.47;;
16033;SDS011;8121;51.418;6.998;2024-03-25T10:23:23;15.70;;;2.30;;
16033;SDS011;8121;51.418;6.998;2024-03-25T10:28:24;4.93;;;1.50;;
16033;SDS011;8121;51.418;6.998;2024-03-25T10:33:26;10.20;;;1.83;;
16033;SDS011;8121;51.418;6.998;2024-03-25T10:38:27;2.23;;;1.20;;
16033;SDS011;8121;51.418;6.998;2024-03-25T10:43:28;7.20;;;1.20;;
16033;SDS011;8121;51.418;6.998;2024-03-25T10:48:31;2.90;;;1.40;;
16033;SDS011;8121;51.418;6.998;2024-03-25T10:53:35;2.33;;;1.27;;
16033;SDS011;8121;51.418;6.998;2024-03-25T10:58:36;6.80;;;1.20;;
16033;SDS011;8121;51.418;6.998;2024-03-25T11:03:40;7.73;;;2.03;;
16033;SDS011;8121;51.418;6.998;2024-03-25T11:08:41;22.33;;;1.47;;
16033;SDS011;8121;51.418;6.998;2024-03-25T11:13:42;6.20;;;1.70;;
16033;SDS011;8121;51.418;6.998;2024-03-25T11:18:50;4.10;;;1.37;;
16033;SDS011;8121;51.418;6.998;2024-03-25T11:23:50;9.40;;;1.40;;
16033;SDS011;8121;51.418;6.998;2024-03-25T11:28:51;1.90;;;0.83;;
16033;SDS011;8121;51.418;6.998;2024-03-25T11:33:54;9.43;;;2.00;;
16033;SDS011;8121;51.418;6.998;2024-03-25T11:38:58;2.60;;;0.90;;
16033;SDS011;8121;51.418;6.998;2024-03-25T11:43:59;8.53;;;2.00;;
16033;SDS011;8121;51.418;6.998;2024-03-25T11:49:01;4.50;;;1.10;;
16033;SDS011;8121;51.418;6.998;2024-03-25T11:54:02;6.53;;;1.60;;
16033;SDS011;8121;51.418;6.998;2024-03-25T11:59:03;5.43;;;1.07;;
16033;SDS011;8121;51.418;6.998;2024-03-25T12:04:12;2.33;;;0.90;;
16033;SDS011;8121;51.418;6.998;2024-03-25T12:09:15;4.53;;;1.70;;
16033;SDS011;8121;51.418;6.998;2024-03-25T12:14:34;3.43;;;0.80;;
16033;SDS011;8121;51.418;6.998;2024-03-25T12:19:37;0.80;;;0.70;;
16033;SDS011;8121;51.418;6.998;2024-03-25T12:24:37;2.10;;;0.77;;
16033;SDS011;8121;51.418;6.998;2024-03-25T12:29:38;8.03;;;1.73;;
16033;SDS011;8121;51.418;6.998;2024-03-25T12:34:40;1.43;;;0.80;;
16033;SDS011;8121;51.418;6.998;2024-03-25T12:39:46;4.10;;;0.70;;
16033;SDS011;8121;51.418;6.998;2024-03-25T12:44:47;1.90;;;0.60;;
16033;SDS011;8121;51.418;6.998;2024-03-25T12:49:49;6.30;;;1.00;;
16033;SDS011;8121;51.418;6.998;2024-03-25T12:54:50;1.80;;;1.17;;
16033;SDS011;8121;51.418;6.998;2024-03-25T12:59:50;0.80;;;0.80;;
16033;SDS011;8121;51.418;6.998;2024-03-25T13:04:52;1.20;;;0.90;;
16033;SDS011;8121;51.418;6.998;2024-03-25T13:09:53;1.80;;;1.10;;
16033;SDS011;8121;51.418;6.998;2024-03-25T13:14:53;2.67;;;0.90;;
16033;SDS011;8121;51.418;6.998;2024-03-25T13:19:55;1.83;;;1.00;;
16033;SDS011;8121;51.418;6.998;2024-03-25T13:24:56;1.73;;;0.90;;
16033;SDS011;8121;51.418;6.998;2024-03-25T13:29:56;2.10;;;0.90;;
16033;SDS011;8121;51.418;6.998;2024-03-25T13:34:58;3.30;;;0.80;;
16033;SDS011;8121;51.418;6.998;2024-03-25T13:40:00;5.80;;;1.13;;
16033;SDS011;8121;51.418;6.998;2024-03-25T13:45:01;2.70;;;0.80;;
16033;SDS011;8121;51.418;6.998;2024-03-25T13:50:03;4.73;;;1.10;;
16033;SDS011;8121;51.418;6.998;2024-03-25T13:55:04;3.90;;;1.47;;
16033;SDS011;8121;51.418;6.998;2024-03-25T14:00:05;1.63;;;0.90;;
16033;SDS011;8121;51.418;6.998;2024-03-25T14:05:08;3.80;;;1.10;;
16033;SDS011;8121;51.418;6.998;2024-03-25T14:10:09;1.73;;;1.40;;
16033;SDS011;8121;51.418;6.998;2024-03-25T14:15:10;3.87;;;0.87;;
16033;SDS011;8121;51.418;6.998;2024-03-25T14:20:12;1.53;;;0.67;;
16033;SDS011;8121;51.418;6.998;2024-03-25T14:25:13;7.03;;;1.10;;
16033;SDS011;8121;51.418;6.998;2024-03-25T14:30:13;3.17;;;1.00;;
16033;SDS011;8121;51.418;6.998;2024-03-25T14:35:15;4.00;;;1.20;;
16033;SDS011;8121;51.418;6.998;2024-03-25T14:40:16;3.73;;;1.33;;
16033;SDS011;8121;51.418;6.998;2024-03-25T14:45:17;1.13;;;0.60;;
16033;SDS011;8121;51.418;6.998;2024-03-25T14:50:19;5.50;;;1.83;;
16033;SDS011;8121;51.418;6.998;2024-03-25T14:55:19;6.00;;;0.80;;
16033;SDS011;8121;51.418;6.998;2024-03-25T15:00:20;5.70;;;1.40;;
16033;SDS011;8121;51.418;6.998;2024-03-25T15:05:22;3.47;;;1.40;;
16033;SDS011;8121;51.418;6.998;2024-03-25T15:10:22;5.33;;;1.30;;
16033;SDS011;8121;51.418;6.998;2024-03-25T15:15:23;4.57;;;1.30;;
16033;SDS011;8121;51.418;6.998;2024-03-25T15:20:25;6.30;;;1.20;;
16033;SDS011;8121;51.418;6.998;2024-03-25T15:25:25;1.13;;;0.90;;
16033;SDS011;8121;51.418;6.998;2024-03-25T15:30:26;3.90;;;1.13;;
16033;SDS011;8121;51.418;6.998;2024-03-25T15:35:28;0.87;;;0.60;;
16033;SDS011;8121;51.418;6.998;2024-03-25T15:40:28;1.43;;;0.80;;
16033;SDS011;8121;51.418;6.998;2024-03-25T15:45:29;1.07;;;0.97;;
16033;SDS011;8121;51.418;6.998;2024-03-25T15:50:31;0.83;;;0.60;;
16033;SDS011;8121;51.418;6.998;2024-03-25T15:55:32;4.47;;;1.77;;
16033;SDS011;8121;51.418;6.998;2024-03-25T16:00:32;4.20;;;1.10;;
16033;SDS011;8121;51.418;6.998;2024-03-25T16:05:34;3.33;;;1.23;;
16033;SDS011;8121;51.418;6.998;2024-03-25T16:10:35;3.33;;;0.80;;
16033;SDS011;8121;51.418;6.998;2024-03-25T16:15:36;4.10;;;0.90;;
16033;SDS011;8121;51.418;6.998;2024-03-25T16:20:38;1.03;;;0.87;;
16033;SDS011;8121;51.418;6.998;2024-03-25T16:25:38;1.80;;;1.10;;
16033;SDS011;8121;51.418;6.998;2024-03-25T16:30:39;1.20;;;0.73;;
16033;SDS011;8121;51.418;6.998;2024-03-25T16:35:41;2.43;;;0.83;;
16033;SDS011;8121;51.418;6.998;2024-03-25T16:40:41;2.10;;;0.87;;
16033;SDS011;8121;51.418;6.998;2024-03-25T16:45:42;0.70;;;0.70;;
16033;SDS011;8121;51.418;6.998;2024-03-25T16:50:44;0.70;;;0.50;;
16033;SDS011;8121;51.418;6.998;2024-03-25T16:55:46;2.20;;;1.30;;
16033;SDS011;8121;51.418;6.998;2024-03-25T17:00:49;1.50;;;0.80;;
16033;SDS011;8121;51.418;6.998;2024-03-25T17:05:51;0.70;;;0.60;;
16033;SDS011;8121;51.418;6.998;2024-03-25T17:10:52;0.60;;;0.50;;
16033;SDS011;8121;51.418;6.998;2024-03-25T17:15:52;1.30;;;0.67;;
16033;SDS011;8121;51.418;6.998;2024-03-25T17:20:58;0.70;;;0.50;;
16033;SDS011;8121;51.418;6.998;2024-03-25T17:26:01;0.80;;;0.60;;
16033;SDS011;8121;51.418;6.998;2024-03-25T17:31:03;1.40;;;0.90;;
16033;SDS011;8121;51.418;6.998;2024-03-25T17:36:05;6.30;;;1.73;;
16033;SDS011;8121;51.418;6.998;2024-03-25T17:41:06;10.13;;;0.93;;
16033;SDS011;8121;51.418;6.998;2024-03-25T17:46:06;0.90;;;0.50;;
16033;SDS011;8121;51.418;6.998;2024-03-25T17:51:08;0.70;;;0.50;;
16033;SDS011;8121;51.418;6.998;2024-03-25T17:56:09;1.23;;;0.77;;
16033;SDS011;8121;51.418;6.998;2024-03-25T18:01:09;0.93;;;0.60;;
16033;SDS011;8121;51.418;6.998;2024-03-25T18:06:11;0.90;;;0.70;;
16033;SDS011;8121;51.418;6.998;2024-03-25T18:11:12;2.77;;;0.80;;
16033;SDS011;8121;51.418;6.998;2024-03-25T18:16:13;1.47;;;0.90;;
16033;SDS011;8121;51.418;6.998;2024-03-25T18:21:15;0.67;;;0.67;;
16033;SDS011;8121;51.418;6.998;2024-03-25T18:26:16;5.30;;;2.50;;
16033;SDS011;8121;51.418;6.998;2024-03-25T18:31:16;1.33;;;0.63;;
16033;SDS011;8121;51.418;6.998;2024-03-25T18:36:18;0.90;;;0.60;;
16033;SDS011;8121;51.418;6.998;2024-03-25T18:41:19;0.80;;;0.70;;
16033;SDS011;8121;51.418;6.998;2024-03-25T18:46:20;1.00;;;0.80;;
16033;SDS011;8121;51.418;6.998;2024-03-25T18:51:22;0.90;;;0.80;;
16033;SDS011;8121;51.418;6.998;2024-03-25T18:56:22;1.00;;;0.90;;
16033;SDS011;8121;51.418;6.998;2024-03-25T19:01:23;0.90;;;0.80;;
16033;SDS011;8121;51.418;6.998;2024-03-25T19:06:25;0.80;;;0.60;;
16033;SDS011;8121;51.418;6.998;2024-03-25T19:11:25;1.53;;;0.90;;
16033;SDS011;8121;51.418;6.998;2024-03-25T19:16:26;2.60;;;2.40;;
16033;SDS011;8121;51.418;6.998;2024-03-25T19:21:28;2.47;;;1.57;;
16033;SDS011;8121;51.418;6.998;2024-03-25T19:26:29;1.00;;;0.73;;
16033;SDS011;8121;51.418;6.998;2024-03-25T19:31:30;2.57;;;2.30;;
16033;SDS011;8121;51.418;6.998;2024-03-25T19:36:32;2.30;;;1.40;;
16033;SDS011;8121;51.418;6.998;2024-03-25T19:41:35;5.80;;;1.53;;
16033;SDS011;8121;51.418;6.998;2024-03-25T19:46:36;2.83;;;1.43;;
16033;SDS011;8121;51.418;6.998;2024-03-25T19:51:38;2.07;;;1.10;;
16033;SDS011;8121;51.418;6.998;2024-03-25T19:56:38;1.87;;;1.30;;
16033;SDS011;8121;51.418;6.998;2024-03-25T20:01:39;2.17;;;1.17;;
16033;SDS011;8121;51.418;6.998;2024-03-25T20:06:41;6.13;;;1.10;;
16033;SDS011;8121;51.418;6.998;2024-03-25T20:11:41;1.60;;;0.93;;
16033;SDS011;8121;51.418;6.998;2024-03-25T20:16:42;1.10;;;0.80;;
16033;SDS011;8121;51.418;6.998;2024-03-25T20:21:43;3.27;;;1.40;;
16033;SDS011;8121;51.418;6.998;2024-03-25T20:26:44;6.87;;;1.70;;
16033;SDS011;8121;51.418;6.998;2024-03-25T20:31:45;2.13;;;1.30;;
16033;SDS011;8121;51.418;6.998;2024-03-25T20:36:46;1.80;;;1.37;;
16033;SDS011;8121;51.418;6.998;2024-03-25T20:41:47;1.00;;;0.90;;
16033;SDS011;8121;51.418;6.998;2024-03-25T20:46:48;2.27;;;1.10;;
16033;SDS011;8121;51.418;6.998;2024-03-25T20:51:49;2.80;;;1.23;;
16033;SDS011;8121;51.418;6.998;2024-03-25T20:56:50;1.83;;;1.17;;
16033;SDS011;8121;51.418;6.998;2024-03-25T21:01:51;4.00;;;1.57;;
16033;SDS011;8121;51.418;6.998;2024-03-25T21:06:52;1.90;;;1.70;;
16033;SDS011;8121;51.418;6.998;2024-03-25T21:11:53;3.77;;;1.70;;
16033;SDS011;8121;51.418;6.998;2024-03-25T21:16:54;4.50;;;1.47;;
16033;SDS011;8121;51.418;6.998;2024-03-25T21:21:56;2.30;;;1.03;;
16033;SDS011;8121;51.418;6.998;2024-03-25T21:26:56;1.57;;;1.13;;
16033;SDS011;8121;51.418;6.998;2024-03-25T21:31:57;2.10;;;1.20;;
16033;SDS011;8121;51.418;6.998;2024-03-25T21:36:59;3.67;;;1.27;;
16033;SDS011;8121;51.418;6.998;2024-03-25T21:41:59;1.73;;;1.40;;
16033;SDS011;8121;51.418;6.998;2024-03-25T21:47:00;2.70;;;1.07;;
16033;SDS011;8121;51.418;6.998;2024-03-25T21:52:02;0.80;;;0.70;;
16033;SDS011;8121;51.418;6.998;2024-03-25T21:57:03;2.10;;;1.33;;
16033;SDS011;8121;51.418;6.998;2024-03-25T22:02:03;1.30;;;1.13;;
16033;SDS011;8121;51.418;6.998;2024-03-25T22:07:05;2.80;;;1.53;;
16033;SDS011;8121;51.418;6.998;2024-03-25T22:12:06;2.80;;;1.10;;
16033;SDS011;8121;51.418;6.998;2024-03-25T22:17:07;7.47;;;1.73;;
16033;SDS011;8121;51.418;6.998;2024-03-25T22:22:09;1.13;;;1.03;;
16033;SDS011;8121;51.418;6.998;2024-03-25T22:27:10;4.53;;;1.20;;
16033;SDS011;8121;51.418;6.998;2024-03-25T22:32:10;1.83;;;1.20;;
16033;SDS011;8121;51.418;6.998;2024-03-25T22:37:13;7.63;;;1.50;;
16033;SDS011;8121;51.418;6.998;2024-03-25T22:42:13;16.13;;;3.37;;
16033;SDS011;8121;51.418;6.998;2024-03-25T22:47:14;1.93;;;1.20;;
16033;SDS011;8121;51.418;6.998;2024-03-25T22:52:16;2.03;;;1.50;;
16033;SDS011;8121;51.418;6.998;2024-03-25T22:57:16;1.37;;;1.00;;
16033;SDS011;8121;51.418;6.998;2024-03-25T23:02:17;0.90;;;0.90;;
16033;SDS011;8121;51.418;6.998;2024-03-25T23:07:19;2.07;;;1.37;;
16033;SDS011;8121;51.418;6.998;2024-03-25T23:12:19;12.83;;;1.23;;
16033;SDS011;8121;51.418;6.998;2024-03-25T23:17:20;4.50;;;1.70;;
16033;SDS011;8121;51.418;6.998;2024-03-25T23:22:22;2.60;;;1.20;;
16033;SDS011;8121;51.418;6.998;2024-03-25T23:27:22;3.80;;;1.10;;
16033;SDS011;8121;51.418;6.998;2024-03-25T23:32:23;6.63;;;1.40;;
16033;SDS011;8121;51.418;6.998;2024-03-25T23:37:25;1.67;;;1.57;;
16033;SDS011;8121;51.418;6.998;2024-03-25T23:42:25;3.63;;;1.47;;
16033;SDS011;8121;51.418;6.998;2024-03-25T23:47:26;1.63;;;1.20;;
16033;SDS011;8121;51.418;6.998;2024-03-25T23:52:29;3.03;;;1.47;;
16033;SDS011;8121;51.418;6.998;2024-03-25T23:57:29;3.67;;;1.90;;
